Time;durP1;ratioP1;P1;durP2;ratioP2;P2;SDS_P1;SDS_P2;PMS_P1;PMS_P2;Temp;Humidity;BMP_temperature;BMP_pressure;BME280_temperature;BME280_humidity;BME280_pressure;Samples;Min_cycle;Max_cycle;Signal;HPM_P1;HPM_P2
2022/12/23 00:00:59;;;;;;;21.95;12.52;;;;;;;6.38;100.00;99367.31;5226199;28;20132;-76
2022/12/23 00:03:31;;;;;;;24.00;12.60;;;;;;;6.34;100.00;99368.34;5218133;28;20033;-79
2022/12/23 00:06:08;;;;;;;23.88;12.50;;;;;;;6.40;100.00;99360.34;5230100;28;20464;-76
2022/12/23 00:08:39;;;;;;;22.58;12.82;;;;;;;6.36;100.00;99358.75;5232411;28;20048;-77
2022/12/23 00:11:20;;;;;;;29.05;13.57;;;;;;;6.36;100.00;99354.41;5237648;28;20035;-77
2022/12/23 00:16:39;;;;;;;23.45;11.57;;;;;;;6.38;100.00;99342.22;5230702;28;20114;-78
2022/12/23 00:19:09;;;;;;;26.02;12.55;;;;;;;6.41;100.00;99336.91;5207819;28;20052;-78
2022/12/23 00:21:40;;;;;;;22.67;11.60;;;;;;;6.41;100.00;99331.72;5230456;28;20032;-78
2022/12/23 00:24:10;;;;;;;21.65;11.77;;;;;;;6.43;100.00;99334.28;5230891;28;20036;-78
2022/12/23 00:26:41;;;;;;;23.77;11.70;;;;;;;6.43;100.00;99322.13;5229104;28;20470;-78
2022/12/23 00:29:11;;;;;;;23.98;11.60;;;;;;;6.43;100.00;99318.72;5225645;28;20059;-77
2022/12/23 00:31:41;;;;;;;24.73;11.77;;;;;;;6.43;100.00;99314.34;5221935;28;20030;-78
2022/12/23 00:34:12;;;;;;;26.00;12.88;;;;;;;6.46;100.00;99308.22;5224508;28;20040;-78
2022/12/23 00:36:42;;;;;;;24.30;11.68;;;;;;;6.43;100.00;99319.53;5224883;28;20599;-78
2022/12/23 00:44:50;;;;;;;23.38;10.95;;;;;;;6.49;100.00;99314.13;5226020;28;20094;-78
2022/12/23 00:50:09;;;;;;;24.52;10.82;;;;;;;6.59;100.00;99318.03;5219112;28;20032;-79
2022/12/23 00:52:39;;;;;;;24.00;11.38;;;;;;;6.51;100.00;99309.72;5224526;28;20493;-77
2022/12/23 00:55:10;;;;;;;24.58;12.10;;;;;;;6.57;100.00;99300.84;5220496;28;20032;-78
2022/12/23 00:57:40;;;;;;;22.90;11.02;;;;;;;6.50;100.00;99312.38;5225542;28;20031;-77
2022/12/23 01:00:11;;;;;;;22.17;11.40;;;;;;;6.56;100.00;99314.75;5219338;28;20037;-77
2022/12/23 01:05:36;;;;;;;24.83;11.73;;;;;;;6.57;100.00;99301.69;5232236;28;20102;-79
2022/12/23 01:08:09;;;;;;;23.00;10.80;;;;;;;6.40;100.00;99298.91;5233371;28;20025;-79
2022/12/23 01:10:40;;;;;;;23.38;11.13;;;;;;;6.50;100.00;99307.19;5234587;28;20071;-79
2022/12/23 01:13:10;;;;;;;21.52;10.65;;;;;;;6.48;100.00;99304.66;5235424;28;20110;-79
2022/12/23 01:15:40;;;;;;;22.45;10.80;;;;;;;6.43;100.00;99308.34;5224552;28;20028;-78
2022/12/23 01:18:11;;;;;;;23.50;11.32;;;;;;;6.55;100.00;99297.44;5223869;28;20056;-78
2022/12/23 01:20:41;;;;;;;29.92;12.02;;;;;;;6.49;100.00;99300.31;5233230;28;20108;-78
2022/12/23 01:23:11;;;;;;;21.90;11.30;;;;;;;6.50;100.00;99291.59;5230590;28;20508;-78
2022/12/23 01:25:42;;;;;;;27.50;11.90;;;;;;;6.40;100.00;99298.09;5235027;28;20031;-79
2022/12/23 01:28:12;;;;;;;22.02;11.55;;;;;;;6.49;100.00;99298.56;5221808;28;20016;-78
2022/12/23 01:30:42;;;;;;;22.60;10.68;;;;;;;6.50;100.00;99301.97;5226340;28;20029;-80
2022/12/23 01:33:13;;;;;;;21.88;11.10;;;;;;;6.58;100.00;99307.72;5231931;28;20588;-77
2022/12/23 01:35:43;;;;;;;25.83;11.73;;;;;;;6.58;100.00;99307.72;5232266;28;20107;-77
2022/12/23 01:38:13;;;;;;;23.02;11.30;;;;;;;6.59;100.00;99299.03;5234468;28;20028;-77
2022/12/23 01:40:44;;;;;;;23.23;11.25;;;;;;;6.60;100.00;99305.91;5236803;28;20028;-78
2022/12/23 01:43:16;;;;;;;22.90;10.88;;;;;;;6.70;100.00;99299.44;5233402;28;20025;-79
2022/12/23 01:45:46;;;;;;;21.90;10.85;;;;;;;6.59;100.00;99310.25;5231961;28;20052;-79
2022/12/23 01:48:23;;;;;;;21.92;11.13;;;;;;;6.43;100.00;99297.97;5225273;28;20067;-78
2022/12/23 01:51:04;;;;;;;24.42;10.75;;;;;;;6.56;100.00;99309.56;5229570;28;20078;-78
2022/12/23 01:53:44;;;;;;;21.48;10.57;;;;;;;6.67;100.00;99302.16;5233517;28;20028;-79
2022/12/23 01:56:22;;;;;;;19.85;10.43;;;;;;;6.66;100.00;99301.34;5233920;28;20029;-77
2022/12/23 01:58:58;;;;;;;20.65;10.52;;;;;;;6.55;100.00;99303.50;5233960;28;20057;-79
2022/12/23 02:04:22;;;;;;;22.17;10.68;;;;;;;6.43;100.00;99305.75;5241056;28;20037;-78
2022/12/23 02:09:41;;;;;;;21.25;10.27;;;;;;;6.35;100.00;99306.03;5237685;28;20063;-79
2022/12/23 02:12:30;;;;;;;21.05;10.68;;;;;;;6.42;100.00;99306.66;5240231;28;20108;-79
2022/12/23 02:18:49;;;;;;;22.67;10.88;;;;;;;6.57;100.00;99300.84;5213036;28;20036;-78
2022/12/23 02:21:34;;;;;;;19.88;10.45;;;;;;;6.54;100.00;99298.34;5233067;28;20098;-77
2022/12/23 02:24:44;;;;;;;20.73;10.50;;;;;;;6.52;100.00;99305.38;5236674;28;20031;-78
2022/12/23 02:27:21;;;;;;;21.13;9.40;;;;;;;6.60;100.00;99303.31;5238207;28;20119;-79
2022/12/23 02:30:14;;;;;;;15.70;7.85;;;;;;;6.92;100.00;99305.47;5233990;28;20048;-78
2022/12/23 02:33:10;;;;;;;12.25;6.75;;;;;;;7.33;100.00;99305.41;5226449;28;20051;-79
2022/12/23 02:36:05;;;;;;;13.35;6.68;;;;;;;7.42;100.00;99305.88;5238273;28;20510;-78
2022/12/23 02:38:46;;;;;;;13.88;6.20;;;;;;;7.64;100.00;99306.63;5239525;28;20494;-79
2022/12/23 02:41:55;;;;;;;12.63;5.32;;;;;;;7.79;100.00;99308.53;5235846;28;20037;-77
2022/12/23 02:44:35;;;;;;;15.45;5.75;;;;;;;7.92;100.00;99314.03;5231813;28;20067;-79
2022/12/23 02:47:10;;;;;;;11.15;5.82;;;;;;;8.03;100.00;99314.41;5230067;28;20042;-77
2022/12/23 02:49:49;;;;;;;9.68;5.75;;;;;;;8.06;100.00;99315.06;5232429;28;20036;-79
2022/12/23 02:52:26;;;;;;;10.88;5.70;;;;;;;8.05;100.00;99318.59;5241390;28;20126;-78
2022/12/23 02:55:08;;;;;;;10.43;5.88;;;;;;;8.12;100.00;99320.03;5234756;28;20037;-78
2022/12/23 02:57:44;;;;;;;11.15;5.43;;;;;;;8.19;100.00;99315.41;5238621;28;20036;-78
2022/12/23 03:00:15;;;;;;;11.40;5.90;;;;;;;8.24;100.00;99310.84;5241573;28;20516;-78
2022/12/23 03:02:46;;;;;;;10.25;5.32;;;;;;;8.14;100.00;99313.00;5234019;28;20111;-77
2022/12/23 03:05:34;;;;;;;9.48;5.13;;;;;;;8.12;100.00;99309.63;5236063;28;20114;-78
2022/12/23 03:08:06;;;;;;;10.52;5.60;;;;;;;8.15;100.00;99314.69;5237262;28;20092;-77
2022/12/23 03:11:02;;;;;;;11.13;5.15;;;;;;;8.14;100.00;99312.13;5237941;28;20029;-78
2022/12/23 03:13:51;;;;;;;10.40;5.10;;;;;;;8.16;100.00;99316.38;5235893;28;20104;-79
2022/12/23 03:16:28;;;;;;;8.65;4.65;;;;;;;8.29;100.00;99327.94;5228362;28;20025;-78
2022/12/23 03:19:24;;;;;;;7.10;4.20;;;;;;;8.23;100.00;99327.38;5230114;28;20112;-78
2022/12/23 03:22:13;;;;;;;9.90;4.13;;;;;;;8.22;100.00;99336.91;5233948;28;20020;-78
2022/12/23 03:24:54;;;;;;;9.70;4.38;;;;;;;8.24;100.00;99329.88;5231913;28;20039;-79
2022/12/23 03:27:30;;;;;;;6.65;4.38;;;;;;;8.22;100.00;99326.50;5232017;28;20104;-78
2022/12/23 03:30:15;;;;;;;11.63;4.70;;;;;;;8.20;100.00;99323.13;5239856;28;20526;-79
2022/12/23 03:32:52;;;;;;;7.25;4.70;;;;;;;8.21;100.00;99326.59;5241682;28;20067;-79
2022/12/23 03:35:28;;;;;;;6.60;4.30;;;;;;;8.27;100.00;99329.75;5232796;28;20483;-77
2022/12/23 03:38:01;;;;;;;7.75;5.70;;;;;;;8.34;100.00;99314.69;5237602;28;20036;-78
2022/12/23 03:40:38;;;;;;;6.93;4.95;;;;;;;8.25;100.00;99321.16;5241285;28;20032;-78
2022/12/23 03:43:15;;;;;;;9.43;5.70;;;;;;;8.19;100.00;99318.84;5236706;28;20547;-78
2022/12/23 03:45:54;;;;;;;8.00;4.68;;;;;;;8.27;100.00;99321.09;5235410;28;20565;-79
2022/12/23 03:48:35;;;;;;;10.48;4.70;;;;;;;8.21;100.00;99319.63;5229685;28;20031;-79
2022/12/23 03:51:20;;;;;;;7.55;4.22;;;;;;;8.20;100.00;99317.94;5238353;28;20525;-78
2022/12/23 03:53:58;;;;;;;10.55;5.40;;;;;;;8.22;100.00;99321.31;5236247;28;20020;-80
2022/12/23 03:56:37;;;;;;;8.30;4.93;;;;;;;8.20;100.00;99317.94;5234344;28;20040;-79
2022/12/23 03:59:16;;;;;;;11.02;4.55;;;;;;;8.25;100.00;99326.38;5238877;28;20021;-78
2022/12/23 04:01:46;;;;;;;7.82;4.35;;;;;;;8.31;100.00;99326.09;5242046;28;20028;-79
2022/12/23 04:04:27;;;;;;;9.00;4.57;;;;;;;8.28;100.00;99330.59;5241946;28;20017;-79
2022/12/23 04:07:16;;;;;;;7.32;4.68;;;;;;;8.39;100.00;99331.78;5235006;28;20389;-78
2022/12/23 04:09:48;;;;;;;7.35;4.60;;;;;;;8.32;100.00;99327.78;5240181;28;20021;-79
2022/12/23 04:12:22;;;;;;;7.18;5.43;;;;;;;8.31;100.00;99333.91;5230877;28;20055;-77
2022/12/23 04:14:52;;;;;;;7.50;5.40;;;;;;;8.28;100.00;99335.78;5234702;28;20028;-77
2022/12/23 04:17:23;;;;;;;7.50;5.10;;;;;;;8.27;100.00;99334.97;5232286;28;20025;-78
2022/12/23 04:19:54;;;;;;;10.80;5.57;;;;;;;8.25;100.00;99341.97;5233490;28;20036;-77
2022/12/23 04:22:24;;;;;;;14.27;5.38;;;;;;;8.29;100.00;99338.34;5237946;28;20075;-78
2022/12/23 04:24:54;;;;;;;9.73;6.10;;;;;;;8.30;100.00;99334.81;5239101;28;20036;-78
2022/12/23 04:27:25;;;;;;;10.05;5.75;;;;;;;8.32;100.00;99343.41;5234283;28;20453;-78
2022/12/23 04:29:55;;;;;;;8.80;5.25;;;;;;;8.43;100.00;99333.34;5230936;28;20059;-78
2022/12/23 04:32:26;;;;;;;6.40;4.82;;;;;;;8.37;100.00;99336.22;5235213;28;20040;-79
2022/12/23 04:34:56;;;;;;;7.32;5.30;;;;;;;8.34;100.00;99336.38;5232047;28;20042;-79
2022/12/23 04:37:26;;;;;;;8.38;5.00;;;;;;;8.27;100.00;99344.53;5231066;28;20107;-78
2022/12/23 04:39:56;;;;;;;9.27;5.28;;;;;;;8.34;100.00;99341.56;5229073;28;20588;-79
2022/12/23 04:42:27;;;;;;;7.53;4.90;;;;;;;8.23;100.00;99345.59;5232227;28;20052;-79
2022/12/23 04:44:57;;;;;;;8.35;5.40;;;;;;;8.25;100.00;99343.75;5231023;28;20029;-80
2022/12/23 04:47:28;;;;;;;7.22;4.75;;;;;;;8.24;100.00;99345.50;5223986;28;20592;-79
2022/12/23 04:49:58;;;;;;;8.13;4.97;;;;;;;8.34;100.00;99351.97;5228300;28;20024;-79
2022/12/23 04:52:28;;;;;;;7.90;5.38;;;;;;;8.37;100.00;99351.84;5229932;28;20061;-79
2022/12/23 04:54:58;;;;;;;9.88;5.55;;;;;;;8.51;100.00;99351.19;5232723;28;20032;-79
2022/12/23 04:57:29;;;;;;;8.35;5.30;;;;;;;8.51;100.00;99357.25;5231385;28;20029;-79
2022/12/23 04:59:59;;;;;;;8.20;4.82;;;;;;;8.43;100.00;99356.78;5233525;28;20700;-79
2022/12/23 05:02:29;;;;;;;9.82;5.75;;;;;;;8.40;100.00;99356.88;5230526;28;20036;-79
2022/12/23 05:05:00;;;;;;;8.43;5.38;;;;;;;8.39;100.00;99354.38;5232074;28;20020;-79
2022/12/23 05:07:30;;;;;;;8.85;5.90;;;;;;;8.46;100.00;99371.38;5230227;28;20037;-79
2022/12/23 05:10:00;;;;;;;8.02;5.57;;;;;;;8.57;100.00;99363.94;5221545;28;20561;-79
2022/12/23 05:12:30;;;;;;;9.00;5.78;;;;;;;8.46;100.00;99364.44;5231711;28;20032;-79
2022/12/23 05:15:01;;;;;;;9.63;5.80;;;;;;;8.51;100.00;99370.25;5232250;28;20036;-80
2022/12/23 05:17:31;;;;;;;8.50;5.40;;;;;;;8.38;100.00;99366.53;5221663;28;20037;-79
2022/12/23 05:20:01;;;;;;;10.05;6.57;;;;;;;8.36;100.00;99370.97;5226849;28;20059;-79
2022/12/23 05:22:32;;;;;;;11.88;6.47;;;;;;;8.39;100.00;99376.03;5232073;28;20031;-79
2022/12/23 05:25:02;;;;;;;8.93;5.80;;;;;;;8.38;100.00;99382.16;5239346;28;20085;-80
2022/12/23 05:27:32;;;;;;;8.27;5.45;;;;;;;8.38;100.00;99376.94;5237144;28;20509;-78
2022/12/23 05:30:03;;;;;;;9.52;5.60;;;;;;;8.47;100.00;99381.75;5235012;28;20059;-78
2022/12/23 05:32:34;;;;;;;8.63;5.72;;;;;;;8.50;100.00;99385.94;5239557;28;20028;-78
2022/12/23 05:35:05;;;;;;;9.05;6.07;;;;;;;8.45;100.00;99386.19;5237926;28;20028;-78
2022/12/23 05:37:35;;;;;;;9.95;6.15;;;;;;;8.42;100.00;99383.69;5237241;28;20036;-78
2022/12/23 05:40:06;;;;;;;10.55;6.20;;;;;;;8.47;100.00;99393.91;5237884;28;20032;-78
2022/12/23 05:42:37;;;;;;;9.57;6.20;;;;;;;8.35;100.00;99397.09;5236515;28;20502;-79
2022/12/23 05:45:07;;;;;;;10.18;7.10;;;;;;;8.46;100.00;99398.28;5236622;28;20066;-80
2022/12/23 05:47:38;;;;;;;12.50;8.27;;;;;;;8.57;100.00;99395.19;5225378;28;20021;-79
2022/12/23 05:50:08;;;;;;;13.10;8.30;;;;;;;8.57;100.00;99403.81;5232018;28;20028;-78
2022/12/23 05:52:38;;;;;;;13.15;8.00;;;;;;;8.52;100.00;99398.00;5233569;28;20040;-78
2022/12/23 05:55:09;;;;;;;13.98;8.52;;;;;;;8.54;100.00;99396.16;5232890;28;20041;-78
2022/12/23 05:57:39;;;;;;;13.07;8.30;;;;;;;8.63;100.00;99411.38;5233187;28;20037;-78
2022/12/23 06:00:10;;;;;;;14.73;8.38;;;;;;;8.69;100.00;99407.66;5233681;28;20810;-77
2022/12/23 06:02:40;;;;;;;11.90;7.80;;;;;;;8.71;100.00;99411.84;5233567;28;20060;-79
2022/12/23 06:05:12;;;;;;;13.63;8.65;;;;;;;8.77;100.00;99411.56;5225501;28;20088;-78
2022/12/23 06:07:42;;;;;;;12.70;8.10;;;;;;;8.69;100.00;99410.25;5230155;28;20024;-80
2022/12/23 06:10:13;;;;;;;12.77;8.18;;;;;;;8.69;100.00;99426.69;5227598;28;20083;-77
2022/12/23 06:12:43;;;;;;;12.25;7.97;;;;;;;8.63;100.00;99432.19;5224826;28;20029;-78
2022/12/23 06:15:14;;;;;;;12.27;7.43;;;;;;;8.65;100.00;99438.19;5235470;28;20029;-79
2022/12/23 06:17:44;;;;;;;12.20;7.28;;;;;;;8.71;100.00;99435.28;5226211;28;20033;-78
2022/12/23 06:20:15;;;;;;;10.25;6.68;;;;;;;8.63;100.00;99445.22;5239293;28;20508;-78
2022/12/23 06:22:45;;;;;;;10.13;5.90;;;;;;;8.59;100.00;99448.84;5237049;28;20047;-77
2022/12/23 06:25:15;;;;;;;9.70;6.18;;;;;;;8.65;100.00;99450.34;5237974;28;20032;-79
2022/12/23 06:27:46;;;;;;;9.70;5.82;;;;;;;8.59;100.00;99451.47;5236753;28;20025;-80
2022/12/23 06:30:16;;;;;;;9.20;6.43;;;;;;;8.59;100.00;99461.03;5232571;28;20029;-79
2022/12/23 06:32:46;;;;;;;10.05;6.82;;;;;;;8.58;100.00;99464.56;5216996;28;20374;-77
2022/12/23 06:35:16;;;;;;;13.77;7.47;;;;;;;8.55;100.00;99468.16;5226078;28;20025;-78
2022/12/23 06:37:47;;;;;;;12.60;7.90;;;;;;;8.55;100.00;99462.09;5229746;28;20089;-79
2022/12/23 06:40:17;;;;;;;14.60;8.38;;;;;;;8.57;100.00;99468.09;5227630;28;20523;-78
2022/12/23 06:42:47;;;;;;;14.13;8.70;;;;;;;8.51;100.00;99471.81;5228455;28;20033;-79
2022/12/23 06:45:18;;;;;;;12.63;8.18;;;;;;;8.48;100.00;99471.94;5229141;28;20024;-78
2022/12/23 06:47:48;;;;;;;13.02;8.30;;;;;;;8.50;100.00;99477.94;5228792;28;20029;-78
2022/12/23 06:50:19;;;;;;;14.48;9.07;;;;;;;8.42;100.00;99474.81;5224801;28;20056;-78
2022/12/23 06:52:49;;;;;;;16.20;9.88;;;;;;;8.46;100.00;99480.72;5235980;28;20028;-80
2022/12/23 06:55:19;;;;;;;14.65;9.38;;;;;;;8.37;100.00;99475.94;5236745;28;20033;-78
2022/12/23 06:57:50;;;;;;;15.20;9.30;;;;;;;8.30;100.00;99480.56;5238981;28;20017;-78
2022/12/23 07:00:20;;;;;;;16.48;10.13;;;;;;;8.33;100.00;99483.03;5231904;28;20043;-78
2022/12/23 07:02:53;;;;;;;15.55;10.02;;;;;;;8.33;100.00;99490.84;5227147;28;20021;-79
2022/12/23 07:05:23;;;;;;;15.55;10.07;;;;;;;8.33;100.00;99484.78;5235319;28;20039;-78
2022/12/23 07:07:54;;;;;;;15.40;9.98;;;;;;;8.30;100.00;99490.97;5237468;28;20025;-79
2022/12/23 07:10:24;;;;;;;17.00;9.88;;;;;;;8.27;100.00;99504.13;5231723;28;20039;-79
2022/12/23 07:12:54;;;;;;;14.43;9.10;;;;;;;8.23;100.00;99499.13;5235152;28;20025;-79
2022/12/23 07:15:25;;;;;;;14.57;9.70;;;;;;;8.23;100.00;99518.16;5237680;28;20024;-79
2022/12/23 07:17:55;;;;;;;14.88;9.15;;;;;;;8.23;100.00;99525.97;5235681;28;20048;-79
2022/12/23 07:20:25;;;;;;;15.55;9.65;;;;;;;8.28;100.00;99524.03;5239582;28;20509;-79
2022/12/23 07:22:56;;;;;;;15.20;9.93;;;;;;;8.23;100.00;99515.56;5224835;28;20367;-78
2022/12/23 07:25:26;;;;;;;15.65;9.60;;;;;;;8.19;100.00;99528.81;5227393;28;20111;-78
2022/12/23 07:27:57;;;;;;;14.20;9.18;;;;;;;8.14;100.00;99534.16;5223563;28;20630;-78
2022/12/23 07:30:28;;;;;;;16.02;9.75;;;;;;;8.12;100.00;99532.53;5229320;28;20045;-78
2022/12/23 07:32:58;;;;;;;16.00;10.02;;;;;;;7.95;100.00;99546.25;5230879;28;20027;-78
2022/12/23 07:35:28;;;;;;;15.43;9.43;;;;;;;7.93;100.00;99553.28;5228663;28;20573;-78
2022/12/23 07:37:59;;;;;;;16.50;10.30;;;;;;;8.06;100.00;99549.22;5219335;28;20120;-79
2022/12/23 07:40:29;;;;;;;15.32;9.48;;;;;;;7.97;100.00;99553.97;5221626;28;20679;-78
2022/12/23 07:43:00;;;;;;;16.25;9.43;;;;;;;8.02;100.00;99560.69;5223371;28;20032;-79
2022/12/23 07:45:30;;;;;;;14.65;9.18;;;;;;;7.97;100.00;99570.44;5229542;28;20084;-79
2022/12/23 07:48:00;;;;;;;17.35;9.30;;;;;;;7.92;100.00;99567.19;5233010;28;20032;-79
2022/12/23 07:50:31;;;;;;;16.33;9.88;;;;;;;8.00;100.00;99570.31;5226550;28;20036;-79
2022/12/23 07:53:01;;;;;;;16.55;10.10;;;;;;;7.94;100.00;99570.56;5225274;28;20413;-78
2022/12/23 07:55:31;;;;;;;16.05;10.25;;;;;;;7.93;100.00;99570.63;5234327;28;20063;-79
2022/12/23 07:58:02;;;;;;;18.02;9.55;;;;;;;7.88;100.00;99582.97;5226057;28;20608;-78
2022/12/23 08:00:32;;;;;;;17.52;9.57;;;;;;;7.84;100.00;99582.25;5229983;28;20029;-78
2022/12/23 08:03:02;;;;;;;17.20;9.27;;;;;;;7.85;100.00;99581.34;5231661;28;20024;-78
2022/12/23 08:05:33;;;;;;;17.65;9.88;;;;;;;7.86;100.00;99588.22;5238110;28;20028;-79
2022/12/23 08:08:03;;;;;;;18.00;9.95;;;;;;;7.90;100.00;99588.97;5232336;28;20029;-78
2022/12/23 08:10:33;;;;;;;16.23;10.18;;;;;;;7.85;100.00;99602.13;5222848;28;20039;-79
2022/12/23 08:13:04;;;;;;;17.27;10.38;;;;;;;7.93;100.00;99605.28;5226790;28;20029;-80
2022/12/23 08:15:34;;;;;;;16.83;9.70;;;;;;;7.88;100.00;99609.00;5232650;28;20036;-79
2022/12/23 08:18:04;;;;;;;18.05;10.48;;;;;;;7.96;100.00;99605.16;5224605;28;20433;-80
2022/12/23 08:20:35;;;;;;;19.10;10.25;;;;;;;7.89;100.00;99603.69;5233056;28;20119;-79
2022/12/23 08:23:05;;;;;;;20.45;10.65;;;;;;;7.95;100.00;99606.06;5227367;28;20060;-79
2022/12/23 08:25:35;;;;;;;19.70;11.05;;;;;;;7.93;100.00;99615.69;5233712;28;20032;-79
2022/12/23 08:28:05;;;;;;;18.35;10.43;;;;;;;7.88;100.00;99622.81;5229911;28;20025;-79
2022/12/23 08:30:36;;;;;;;20.48;10.85;;;;;;;7.97;100.00;99638.06;5231496;28;20060;-80
2022/12/23 08:33:06;;;;;;;17.13;10.65;;;;;;;8.03;100.00;99621.38;5233567;28;20029;-79
2022/12/23 08:35:36;;;;;;;20.33;10.40;;;;;;;8.00;100.00;99630.16;5232592;28;20032;-79
2022/12/23 08:38:06;;;;;;;20.10;10.38;;;;;;;7.91;100.00;99629.66;5223595;28;20057;-79
2022/12/23 08:40:40;;;;;;;16.38;10.38;;;;;;;8.06;100.00;99632.47;5227882;28;20037;-79
2022/12/23 08:43:11;;;;;;;17.10;10.75;;;;;;;8.09;100.00;99634.13;5230336;28;20043;-78
2022/12/23 08:45:41;;;;;;;17.92;10.77;;;;;;;8.12;100.00;99640.06;5232206;28;20017;-79
2022/12/23 08:48:12;;;;;;;18.33;11.20;;;;;;;8.10;100.00;99638.41;5234617;28;20532;-78
2022/12/23 08:50:44;;;;;;;19.67;10.95;;;;;;;8.12;100.00;99636.59;5222755;28;20028;-78
2022/12/23 08:53:14;;;;;;;20.52;10.73;;;;;;;8.10;100.00;99646.22;5227679;28;20095;-79
2022/12/23 08:55:46;;;;;;;19.40;10.98;;;;;;;8.10;100.00;99652.28;5231549;28;20047;-79
2022/12/23 08:58:16;;;;;;;16.67;10.50;;;;;;;8.14;100.00;99646.03;5231199;28;20115;-77
2022/12/23 09:00:46;;;;;;;21.67;11.13;;;;;;;8.04;100.00;99649.91;5235499;28;20036;-78
2022/12/23 09:03:17;;;;;;;16.70;10.30;;;;;;;8.08;100.00;99653.25;5231913;28;20032;-79
2022/12/23 09:05:47;;;;;;;18.13;10.18;;;;;;;8.19;100.00;99653.72;5229893;28;20064;-80
2022/12/23 09:08:17;;;;;;;18.38;10.40;;;;;;;8.20;100.00;99656.22;5230412;28;20409;-79
2022/12/23 09:10:48;;;;;;;16.25;10.23;;;;;;;8.34;100.00;99655.66;5226632;28;20024;-78
2022/12/23 09:13:18;;;;;;;15.50;9.68;;;;;;;8.34;100.00;99658.25;5226815;28;20107;-78
2022/12/23 09:15:48;;;;;;;16.33;10.13;;;;;;;8.34;100.00;99664.31;5230428;28;20025;-78
2022/12/23 09:18:19;;;;;;;16.13;10.68;;;;;;;8.30;100.00;99665.38;5223141;28;20047;-79
2022/12/23 09:21:03;;;;;;;16.83;9.90;;;;;;;8.24;100.00;99668.19;5227501;28;20033;-77
2022/12/23 09:23:33;;;;;;;15.65;10.00;;;;;;;8.40;100.00;99658.84;5233036;28;20028;-78
2022/12/23 09:26:04;;;;;;;18.58;11.23;;;;;;;8.52;100.00;99658.34;5227858;28;20031;-79
2022/12/23 09:28:35;;;;;;;17.77;10.20;;;;;;;8.59;100.00;99649.38;5229630;28;20033;-78
2022/12/23 09:31:09;;;;;;;18.95;9.75;;;;;;;8.70;100.00;99634.13;5232010;28;20576;-78
2022/12/23 09:33:40;;;;;;;12.27;8.60;;;;;;;8.62;100.00;99636.25;5230355;28;20049;-79
2022/12/23 09:36:10;;;;;;;14.43;9.20;;;;;;;8.46;100.00;99637.78;5230982;28;20552;-79
2022/12/23 09:38:41;;;;;;;15.63;9.57;;;;;;;8.61;100.00;99657.13;5229667;28;20033;-78
2022/12/23 09:41:33;;;;;;;15.50;10.00;;;;;;;8.36;100.00;99652.09;5221804;28;20474;-78
2022/12/23 09:44:22;;;;;;;15.00;9.02;;;;;;;8.51;100.00;99656.66;5224046;28;20069;-79
2022/12/23 09:46:58;;;;;;;15.18;9.23;;;;;;;8.39;100.00;99646.75;5225986;28;20025;-80
2022/12/23 09:49:28;;;;;;;15.05;9.93;;;;;;;8.40;100.00;99645.84;5230428;28;20052;-77
2022/12/23 09:52:04;;;;;;;17.40;9.70;;;;;;;8.42;100.00;99646.63;5224728;28;20106;-79
2022/12/23 09:54:44;;;;;;;16.02;9.85;;;;;;;8.30;100.00;99661.91;5227437;28;20032;-79
2022/12/23 09:57:22;;;;;;;16.98;10.10;;;;;;;8.23;100.00;99676.91;5227322;28;20071;-79
2022/12/23 10:00:12;;;;;;;16.25;10.18;;;;;;;8.24;100.00;99678.63;5225300;28;20033;-79
2022/12/23 10:02:57;;;;;;;16.67;10.52;;;;;;;8.34;100.00;99684.28;5231007;28;20109;-79
2022/12/23 10:06:09;;;;;;;18.17;10.85;;;;;;;8.22;100.00;99679.59;5227555;28;20112;-79
2022/12/23 10:08:44;;;;;;;18.90;10.55;;;;;;;8.13;100.00;99678.19;5160186;28;20041;-78
2022/12/23 10:11:22;;;;;;;21.25;11.80;;;;;;;8.30;100.00;99681.00;5208189;28;20037;-79
2022/12/23 10:13:59;;;;;;;22.08;12.85;;;;;;;8.33;100.00;99674.78;5226097;28;20033;-79
2022/12/23 10:16:34;;;;;;;20.98;12.05;;;;;;;8.38;100.00;99671.09;5231004;28;20040;-78
2022/12/23 10:19:16;;;;;;;20.52;12.20;;;;;;;8.79;100.00;99667.63;5234835;28;20043;-78
2022/12/23 10:22:05;;;;;;;18.60;10.90;;;;;;;8.87;100.00;99665.50;5228736;28;20025;-79
2022/12/23 10:24:39;;;;;;;20.05;11.88;;;;;;;8.86;100.00;99676.03;5225254;28;20466;-79
2022/12/23 10:27:33;;;;;;;19.60;12.10;;;;;;;8.90;100.00;99686.22;5218024;28;20108;-76
2022/12/23 10:30:11;;;;;;;18.50;11.13;;;;;;;8.76;100.00;99688.56;5231343;28;20067;-78
2022/12/23 10:33:13;;;;;;;18.25;11.40;;;;;;;8.67;100.00;99680.28;5227532;28;20107;-77
2022/12/23 10:36:00;;;;;;;19.13;10.90;;;;;;;8.57;100.00;99677.22;5230407;28;20029;-78
2022/12/23 10:38:34;;;;;;;18.90;11.48;;;;;;;8.61;100.00;99689.25;5224156;28;20041;-79
2022/12/23 10:41:29;;;;;;;18.88;11.27;;;;;;;8.55;100.00;99688.63;5227736;28;20538;-78
2022/12/23 10:44:17;;;;;;;19.92;11.48;;;;;;;8.50;100.00;99687.97;5229632;28;20044;-79
2022/12/23 10:47:25;;;;;;;17.23;10.43;;;;;;;8.40;100.00;99695.31;5232869;28;20103;-79
2022/12/23 10:50:13;;;;;;;18.13;11.60;;;;;;;8.51;100.00;99698.31;5230456;28;20017;-78
2022/12/23 10:52:45;;;;;;;20.45;11.80;;;;;;;8.37;100.00;99694.59;5223627;28;20125;-76
2022/12/23 10:55:23;;;;;;;21.83;12.85;;;;;;;8.48;100.00;99698.47;5228767;28;20025;-79
2022/12/23 10:58:07;;;;;;;20.73;12.50;;;;;;;8.52;100.00;99692.22;5228444;28;20584;-77
2022/12/23 11:00:42;;;;;;;24.00;13.57;;;;;;;8.68;100.00;99685.44;5235728;28;20040;-76
2022/12/23 11:03:31;;;;;;;28.97;16.13;;;;;;;8.74;100.00;99681.75;5230244;28;20490;-80
2022/12/23 11:06:02;;;;;;;22.08;12.98;;;;;;;8.52;100.00;99688.78;5230469;28;20328;-79
2022/12/23 11:08:35;;;;;;;17.58;11.85;;;;;;;8.50;100.00;99686.22;5227188;28;20538;-77
2022/12/23 11:11:06;;;;;;;22.15;11.93;;;;;;;8.43;100.00;99689.13;5219073;28;20031;-78
2022/12/23 11:13:39;;;;;;;19.48;10.95;;;;;;;8.60;100.00;99671.06;5229287;28;20045;-78
2022/12/23 11:16:12;;;;;;;19.73;11.45;;;;;;;8.50;100.00;99668.00;5237985;28;20024;-77
2022/12/23 11:18:56;;;;;;;19.52;11.07;;;;;;;8.54;100.00;99666.94;5232047;28;20029;-76
2022/12/23 11:21:28;;;;;;;20.98;11.68;;;;;;;8.63;100.00;99670.91;5224937;28;20521;-78
2022/12/23 11:24:06;;;;;;;19.80;11.55;;;;;;;8.54;100.00;99661.75;5225056;28;20041;-77
2022/12/23 11:26:36;;;;;;;20.98;12.63;;;;;;;8.58;100.00;99665.06;5222110;28;20033;-77
2022/12/23 11:29:14;;;;;;;19.10;11.70;;;;;;;8.63;100.00;99660.50;5220471;28;20051;-76
2022/12/23 11:31:44;;;;;;;23.85;14.55;;;;;;;8.53;100.00;99667.03;5218294;28;20118;-75
2022/12/23 11:34:18;;;;;;;19.83;11.55;;;;;;;8.46;100.00;99660.38;5222378;28;20210;-78
2022/12/23 11:36:54;;;;;;;19.33;12.10;;;;;;;8.44;100.00;99657.84;5215554;28;20082;-78
2022/12/23 11:39:25;;;;;;;19.60;12.20;;;;;;;8.49;100.00;99653.28;5219553;28;20040;-78
2022/12/23 11:42:02;;;;;;;19.70;10.68;;;;;;;8.37;100.00;99648.56;5216136;28;20040;-78
2022/12/23 11:44:54;;;;;;;14.30;9.60;;;;;;;8.32;100.00;99666.16;5224962;28;20033;-78
2022/12/23 11:47:34;;;;;;;17.45;10.48;;;;;;;8.28;100.00;99656.78;5220916;28;20033;-78
2022/12/23 11:50:36;;;;;;;16.52;8.98;;;;;;;8.38;100.00;99650.28;5217657;28;20106;-77
2022/12/23 11:53:22;;;;;;;17.90;10.35;;;;;;;8.37;100.00;99651.19;5214961;28;20038;-78
2022/12/23 11:56:03;;;;;;;18.55;11.07;;;;;;;8.26;100.00;99650.78;5223380;28;20045;-78
2022/12/23 11:59:04;;;;;;;17.27;10.20;;;;;;;8.19;100.00;99644.13;5227774;28;20426;-78
2022/12/23 12:01:36;;;;;;;16.15;9.68;;;;;;;8.13;100.00;99646.09;5223689;28;20025;-77
2022/12/23 12:04:10;;;;;;;25.73;12.20;;;;;;;8.12;100.00;99647.88;5226752;28;20021;-79
2022/12/23 12:06:44;;;;;;;16.60;9.63;;;;;;;8.16;100.00;99646.81;5221964;28;20094;-77
2022/12/23 12:09:16;;;;;;;13.93;8.68;;;;;;;8.18;100.00;99649.41;5230719;28;20040;-79
2022/12/23 12:11:56;;;;;;;13.40;8.30;;;;;;;8.20;100.00;99645.81;5226407;28;20037;-79
2022/12/23 12:14:42;;;;;;;16.85;10.00;;;;;;;8.15;100.00;99642.53;5228184;28;20029;-78
2022/12/23 12:17:37;;;;;;;16.45;10.07;;;;;;;8.14;100.00;99634.78;5223299;28;20298;-77
2022/12/23 12:20:32;;;;;;;19.02;10.82;;;;;;;8.20;100.00;99635.41;5222942;28;20033;-79